Shady Beach, South Dakota
Current Conditions -  °F | °C
As of 3:34 AM on Thursday 27 Nov 2014 (Local Time) from KVVV Reporting Station
Clear Clear  
Wind Chill: -18°   Ceiling: Unl
Heat Index: -6°   Visibility: 10mi
Dew Point: -11°   Wind: 6mph
Humidity: 77%   Direction: 290°WNW
Pressure: 30.53"   Gusts: NA
Location:  45.3641°N, 96.6682°W
Report Text: KVVV 270934Z AUTO 29005KT 10SM CLR M21/M24 A3053 RMK AO2
Loading
Personal Weather Stations






























Interactive Weather Map New forecast layout! Learn more

10-Day Weather Forecast

Advertisements
Track Severe Weather on mobile